Time;durP1;ratioP1;P1;durP2;ratioP2;P2;SDS_P1;SDS_P2;PMS_P1;PMS_P2;Temp;Humidity;BMP_temperature;BMP_pressure;BME280_temperature;BME280_humidity;BME280_pressure;Samples;Min_cycle;Max_cycle;Signal;HPM_P1;HPM_P2
2021/07/12 00:01:17;;;;;;;4.35;4.05;;;;;;;;;;4975492;28;20367;-73
2021/07/12 00:03:43;;;;;;;7.72;5.68;;;;;;;;;;4975683;28;20035;-73
2021/07/12 00:06:09;;;;;;;4.75;4.35;;;;;;;;;;4975473;28;20358;-73
2021/07/12 00:08:36;;;;;;;6.18;4.80;;;;;;;;;;4975714;28;20031;-73
2021/07/12 00:11:02;;;;;;;5.95;4.10;;;;;;;;;;4974978;28;20425;-72
2021/07/12 00:13:28;;;;;;;6.50;4.20;;;;;;;;;;4974869;28;20042;-73
2021/07/12 00:15:54;;;;;;;7.80;4.40;;;;;;;;;;4981093;28;20062;-73
2021/07/12 00:18:20;;;;;;;6.25;4.47;;;;;;;;;;4975735;28;20035;-73
2021/07/12 00:20:46;;;;;;;4.47;4.07;;;;;;;;;;4975432;28;20074;-72
2021/07/12 00:23:12;;;;;;;5.35;4.45;;;;;;;;;;4975433;28;20504;-72
2021/07/12 00:25:38;;;;;;;6.82;4.72;;;;;;;;;;4974805;28;20478;-73
2021/07/12 00:28:06;;;;;;;4.70;4.15;;;;;;;;;;4974989;28;20023;-72
2021/07/12 00:30:32;;;;;;;4.43;4.03;;;;;;;;;;4975161;28;20031;-73
2021/07/12 00:32:58;;;;;;;4.95;4.55;;;;;;;;;;4975411;28;20030;-72
2021/07/12 00:35:25;;;;;;;5.35;4.30;;;;;;;;;;4974890;28;20102;-73
2021/07/12 00:37:51;;;;;;;4.60;4.18;;;;;;;;;;4975411;28;20033;-72
2021/07/12 00:40:17;;;;;;;4.50;3.92;;;;;;;;;;4974840;28;20077;-73
2021/07/12 00:42:43;;;;;;;5.82;4.03;;;;;;;;;;4975547;28;20042;-73
2021/07/12 00:45:11;;;;;;;5.90;4.35;;;;;;;;;;4975028;28;20027;-73
2021/07/12 00:47:37;;;;;;;9.57;4.55;;;;;;;;;;4974910;28;20063;-73
2021/07/12 00:50:05;;;;;;;5.60;4.60;;;;;;;;;;4975226;28;20054;-72
2021/07/12 00:52:31;;;;;;;5.72;5.15;;;;;;;;;;4975053;28;20520;-73
2021/07/12 00:54:57;;;;;;;4.88;4.47;;;;;;;;;;4974757;28;20540;-72
2021/07/12 00:57:23;;;;;;;6.15;5.35;;;;;;;;;;4974674;28;20465;-73
2021/07/12 00:59:49;;;;;;;5.93;5.10;;;;;;;;;;4975658;28;20078;-73
2021/07/12 01:02:15;;;;;;;6.05;4.82;;;;;;;;;;4974743;28;20113;-73
2021/07/12 01:04:41;;;;;;;5.90;5.30;;;;;;;;;;4974642;28;20046;-73
2021/07/12 01:07:10;;;;;;;7.30;5.18;;;;;;;;;;4974685;28;20447;-73
2021/07/12 01:09:36;;;;;;;6.32;5.43;;;;;;;;;;4974157;28;20428;-73
2021/07/12 01:12:22;;;;;;;5.18;4.68;;;;;;;;;;4974766;28;20069;-72
2021/07/12 01:14:51;;;;;;;4.90;4.40;;;;;;;;;;4973946;28;20381;-73
2021/07/12 01:17:32;;;;;;;4.63;4.22;;;;;;;;;;4974464;28;20504;-73
2021/07/12 01:20:23;;;;;;;5.45;4.90;;;;;;;;;;4974376;28;20537;-73
2021/07/12 01:23:09;;;;;;;4.65;4.22;;;;;;;;;;4974106;28;20022;-73
2021/07/12 01:25:55;;;;;;;5.43;5.03;;;;;;;;;;4977588;28;20038;-73
2021/07/12 01:28:32;;;;;;;4.88;4.45;;;;;;;;;;4977607;28;20023;-73
2021/07/12 01:31:18;;;;;;;5.10;4.60;;;;;;;;;;4978946;28;20027;-73
2021/07/12 01:33:49;;;;;;;5.50;5.00;;;;;;;;;;4977435;28;20350;-73
2021/07/12 01:36:15;;;;;;;5.47;4.75;;;;;;;;;;4978371;28;20465;-73
2021/07/12 01:38:44;;;;;;;6.40;5.80;;;;;;;;;;4978499;28;20045;-73
2021/07/12 01:41:16;;;;;;;5.88;5.38;;;;;;;;;;4978090;28;20457;-73
2021/07/12 01:43:44;;;;;;;7.70;5.47;;;;;;;;;;4978129;28;20029;-73
2021/07/12 01:46:14;;;;;;;5.40;4.90;;;;;;;;;;4978349;28;20030;-72
2021/07/12 01:49:00;;;;;;;5.90;5.35;;;;;;;;;;4978620;28;20070;-72
2021/07/12 01:51:46;;;;;;;8.70;5.90;;;;;;;;;;4976938;28;20026;-73
2021/07/12 01:54:14;;;;;;;5.93;5.35;;;;;;;;;;4977300;28;20109;-73
2021/07/12 01:56:45;;;;;;;8.63;4.97;;;;;;;;;;4978320;28;20050;-73
2021/07/12 01:59:31;;;;;;;5.15;4.65;;;;;;;;;;4978064;28;20031;-73
2021/07/12 02:01:57;;;;;;;5.88;4.50;;;;;;;;;;4976924;28;20485;-73
2021/07/12 02:04:26;;;;;;;6.00;5.40;;;;;;;;;;4978039;28;20500;-73
2021/07/12 02:06:52;;;;;;;10.77;6.00;;;;;;;;;;4977846;28;20496;-73
2021/07/12 02:09:18;;;;;;;4.90;4.47;;;;;;;;;;4978059;28;20026;-72
2021/07/12 02:11:45;;;;;;;6.28;5.72;;;;;;;;;;4977434;28;20073;-73
2021/07/12 02:14:11;;;;;;;5.03;4.63;;;;;;;;;;4977939;28;20030;-72
2021/07/12 02:16:37;;;;;;;10.73;5.97;;;;;;;;;;4977726;28;20681;-73
2021/07/12 02:19:03;;;;;;;5.93;5.15;;;;;;;;;;4977657;28;20019;-72
2021/07/12 02:21:32;;;;;;;11.80;5.40;;;;;;;;;;4977661;28;20031;-73
2021/07/12 02:23:59;;;;;;;5.63;5.05;;;;;;;;;;4977688;28;20027;-72
2021/07/12 02:26:25;;;;;;;6.22;5.68;;;;;;;;;;4977665;28;20035;-73
2021/07/12 02:28:51;;;;;;;5.03;4.63;;;;;;;;;;4977241;28;20029;-72
2021/07/12 02:31:17;;;;;;;5.97;5.38;;;;;;;;;;4977586;28;20368;-72
2021/07/12 02:33:44;;;;;;;5.57;5.07;;;;;;;;;;4977368;28;20479;-72
2021/07/12 02:36:10;;;;;;;6.93;5.85;;;;;;;;;;4976293;28;20035;-72
2021/07/12 02:38:36;;;;;;;5.28;4.68;;;;;;;;;;4977464;28;20027;-73
2021/07/12 02:41:02;;;;;;;7.22;5.53;;;;;;;;;;4977368;28;20034;-72
2021/07/12 02:43:28;;;;;;;5.50;5.05;;;;;;;;;;4977149;28;20477;-73
2021/07/12 02:45:54;;;;;;;5.65;4.90;;;;;;;;;;4977472;28;20038;-73
2021/07/12 02:48:20;;;;;;;5.70;5.05;;;;;;;;;;4979130;28;20113;-73
2021/07/12 02:50:46;;;;;;;6.10;5.50;;;;;;;;;;4977516;28;20029;-72
2021/07/12 02:53:16;;;;;;;5.63;5.00;;;;;;;;;;4977383;28;20034;-72
2021/07/12 02:55:42;;;;;;;5.65;5.15;;;;;;;;;;4976420;28;20138;-72
2021/07/12 02:58:08;;;;;;;5.75;5.15;;;;;;;;;;4976866;28;20445;-72
2021/07/12 03:00:35;;;;;;;5.90;5.30;;;;;;;;;;4976949;28;20027;-72
2021/07/12 03:03:01;;;;;;;6.43;5.82;;;;;;;;;;4976982;28;20471;-72
2021/07/12 03:05:27;;;;;;;86.82;27.13;;;;;;;;;;4976413;28;20437;-72
2021/07/12 03:08:13;;;;;;;44.40;18.15;;;;;;;;;;4977274;28;20146;-72
2021/07/12 03:10:40;;;;;;;34.42;14.50;;;;;;;;;;4975808;28;20026;-72
2021/07/12 03:13:06;;;;;;;30.10;12.15;;;;;;;;;;4976991;28;20117;-72
2021/07/12 03:15:37;;;;;;;21.05;10.23;;;;;;;;;;4976402;28;20031;-73
2021/07/12 03:18:04;;;;;;;18.85;10.43;;;;;;;;;;4977160;28;20015;-73
2021/07/12 03:20:30;;;;;;;30.60;11.93;;;;;;;;;;4976020;28;20023;-72
2021/07/12 03:22:56;;;;;;;25.33;10.13;;;;;;;;;;4976585;28;20058;-72
2021/07/12 03:25:23;;;;;;;22.58;11.05;;;;;;;;;;4975904;28;20477;-73
2021/07/12 03:27:50;;;;;;;20.33;9.63;;;;;;;;;;4977101;28;20034;-72
2021/07/12 03:30:16;;;;;;;16.48;9.40;;;;;;;;;;4976795;28;20465;-72
2021/07/12 03:32:46;;;;;;;14.15;9.00;;;;;;;;;;4976331;28;20049;-72
2021/07/12 03:35:13;;;;;;;17.23;8.65;;;;;;;;;;4976254;28;20054;-72
2021/07/12 03:37:39;;;;;;;16.90;8.63;;;;;;;;;;4976143;28;20077;-73
2021/07/12 03:40:06;;;;;;;14.82;9.65;;;;;;;;;;4975589;28;20030;-73
2021/07/12 03:42:34;;;;;;;11.90;8.55;;;;;;;;;;4976496;28;20035;-73
2021/07/12 03:45:02;;;;;;;16.33;8.52;;;;;;;;;;4974374;28;20027;-73
2021/07/12 03:47:30;;;;;;;15.95;9.32;;;;;;;;;;4975269;28;20543;-73
2021/07/12 03:50:12;;;;;;;14.63;8.63;;;;;;;;;;4976080;28;20089;-73
2021/07/12 03:52:40;;;;;;;11.73;8.55;;;;;;;;;;4975905;28;20058;-72
2021/07/12 03:55:07;;;;;;;9.98;8.20;;;;;;;;;;4975537;28;20092;-72
2021/07/12 03:57:33;;;;;;;9.90;7.15;;;;;;;;;;4973888;28;20095;-71
2021/07/12 03:59:59;;;;;;;7.93;5.63;;;;;;;;;;4975901;28;20027;-72
2021/07/12 04:02:25;;;;;;;7.95;5.88;;;;;;;;;;4977317;28;20023;-71
2021/07/12 04:04:51;;;;;;;7.50;6.75;;;;;;;;;;4976930;28;20372;-71
2021/07/12 04:07:17;;;;;;;6.57;5.68;;;;;;;;;;4977050;28;20027;-70
2021/07/12 04:09:43;;;;;;;9.10;5.72;;;;;;;;;;4973367;28;20030;-72
2021/07/12 04:12:10;;;;;;;8.68;7.88;;;;;;;;;;4976402;28;20026;-71
2021/07/12 04:14:36;;;;;;;7.15;6.35;;;;;;;;;;4976883;28;20026;-70
2021/07/12 04:17:02;;;;;;;6.70;5.88;;;;;;;;;;4977414;28;20097;-71
2021/07/12 04:19:28;;;;;;;6.63;5.72;;;;;;;;;;4975012;28;20030;-73
2021/07/12 04:21:54;;;;;;;6.25;5.60;;;;;;;;;;4977743;28;20030;-72
2021/07/12 04:24:20;;;;;;;6.72;6.07;;;;;;;;;;4975962;28;20476;-71
2021/07/12 04:26:46;;;;;;;7.22;6.53;;;;;;;;;;4975685;28;20468;-71
2021/07/12 04:29:12;;;;;;;7.60;6.88;;;;;;;;;;4976054;28;20452;-77
2021/07/12 04:31:39;;;;;;;7.93;6.53;;;;;;;;;;4976730;28;20023;-74
2021/07/12 04:34:05;;;;;;;14.15;6.47;;;;;;;;;;4977027;28;20035;-73
2021/07/12 04:36:31;;;;;;;7.72;5.80;;;;;;;;;;4977426;28;20057;-74
2021/07/12 04:39:00;;;;;;;8.65;5.53;;;;;;;;;;4975560;28;20059;-73
2021/07/12 04:41:26;;;;;;;8.43;6.55;;;;;;;;;;4976069;28;20089;-72
2021/07/12 04:43:52;;;;;;;5.55;4.95;;;;;;;;;;4975284;28;20483;-73
2021/07/12 04:46:18;;;;;;;15.20;8.15;;;;;;;;;;4975594;28;20026;-73
2021/07/12 04:48:44;;;;;;;7.63;6.22;;;;;;;;;;4974067;28;20027;-73
2021/07/12 04:51:10;;;;;;;8.73;5.85;;;;;;;;;;4974834;28;20074;-73
2021/07/12 04:53:36;;;;;;;6.00;5.28;;;;;;;;;;4974896;28;20026;-73
2021/07/12 04:56:03;;;;;;;18.48;7.97;;;;;;;;;;4974933;28;20104;-74
2021/07/12 04:58:31;;;;;;;10.95;6.20;;;;;;;;;;4973502;28;20046;-72
2021/07/12 05:00:58;;;;;;;10.35;6.38;;;;;;;;;;4975862;28;20033;-73
2021/07/12 05:03:25;;;;;;;9.20;6.43;;;;;;;;;;4975485;28;20038;-73
2021/07/12 05:05:51;;;;;;;11.38;6.80;;;;;;;;;;4975294;28;20064;-72
2021/07/12 05:08:17;;;;;;;6.75;5.72;;;;;;;;;;4974090;28;20031;-71
2021/07/12 05:10:44;;;;;;;11.00;7.05;;;;;;;;;;4975140;28;20023;-75
2021/07/12 05:13:10;;;;;;;8.10;5.70;;;;;;;;;;4974512;28;20034;-75
2021/07/12 05:15:37;;;;;;;6.95;4.72;;;;;;;;;;4974362;28;20038;-73
2021/07/12 05:18:03;;;;;;;10.55;6.55;;;;;;;;;;4975400;28;20058;-74
2021/07/12 05:20:30;;;;;;;6.88;6.15;;;;;;;;;;4973061;28;20536;-73
2021/07/12 05:22:56;;;;;;;13.20;8.10;;;;;;;;;;4975619;28;20030;-74
2021/07/12 05:25:22;;;;;;;7.75;6.07;;;;;;;;;;4974434;28;20110;-71
2021/07/12 05:27:49;;;;;;;19.23;6.63;;;;;;;;;;4974011;28;20029;-72
2021/07/12 05:30:16;;;;;;;20.98;6.65;;;;;;;;;;4971708;28;20015;-73
2021/07/12 05:32:42;;;;;;;10.50;6.05;;;;;;;;;;4973260;28;20027;-75
2021/07/12 05:35:08;;;;;;;6.53;5.55;;;;;;;;;;4974393;28;20026;-74
2021/07/12 05:37:37;;;;;;;8.23;5.53;;;;;;;;;;4974938;28;20026;-71
2021/07/12 05:40:04;;;;;;;6.68;5.88;;;;;;;;;;4975247;28;20118;-72
2021/07/12 05:42:30;;;;;;;6.65;5.85;;;;;;;;;;4974189;28;20050;-71
2021/07/12 05:44:56;;;;;;;7.85;6.22;;;;;;;;;;4974532;28;20089;-72
2021/07/12 05:47:23;;;;;;;5.55;4.63;;;;;;;;;;4974420;28;20473;-73
2021/07/12 05:49:49;;;;;;;9.57;5.35;;;;;;;;;;4974239;28;20536;-71
2021/07/12 05:52:15;;;;;;;5.47;4.75;;;;;;;;;;4974660;28;20038;-71
2021/07/12 05:54:41;;;;;;;6.70;4.85;;;;;;;;;;4973285;28;20055;-72
2021/07/12 05:57:07;;;;;;;13.95;5.88;;;;;;;;;;4973387;28;20445;-75
2021/07/12 05:59:33;;;;;;;8.20;5.47;;;;;;;;;;4973908;28;20038;-73
2021/07/12 06:01:59;;;;;;;13.52;5.88;;;;;;;;;;4973261;28;20122;-73
2021/07/12 06:04:26;;;;;;;8.23;5.75;;;;;;;;;;4973112;28;20046;-71
2021/07/12 06:06:52;;;;;;;7.82;5.25;;;;;;;;;;4974599;28;20034;-70
2021/07/12 06:09:18;;;;;;;13.48;5.10;;;;;;;;;;4975751;28;20061;-72
2021/07/12 06:11:44;;;;;;;11.52;5.38;;;;;;;;;;4977334;28;20103;-72
2021/07/12 06:14:10;;;;;;;7.05;5.28;;;;;;;;;;4977459;28;20054;-76
2021/07/12 06:16:36;;;;;;;5.80;4.68;;;;;;;;;;4977393;28;20041;-73
2021/07/12 06:19:02;;;;;;;16.65;6.88;;;;;;;;;;4977675;28;20031;-75
2021/07/12 06:21:28;;;;;;;7.50;5.53;;;;;;;;;;4978299;28;20081;-71
2021/07/12 06:23:54;;;;;;;6.40;5.72;;;;;;;;;;4977705;28;20031;-74
2021/07/12 06:26:20;;;;;;;6.10;5.50;;;;;;;;;;4977086;28;20380;-73
2021/07/12 06:28:46;;;;;;;6.68;5.20;;;;;;;;;;4977382;28;20035;-74
2021/07/12 06:31:12;;;;;;;10.75;5.10;;;;;;;;;;4977046;28;20077;-73
2021/07/12 06:33:38;;;;;;;12.70;6.07;;;;;;;;;;4977248;28;20023;-73
2021/07/12 06:36:05;;;;;;;13.98;6.03;;;;;;;;;;4977171;28;20421;-74
2021/07/12 06:38:32;;;;;;;9.80;5.78;;;;;;;;;;4977097;28;20420;-74
2021/07/12 06:40:58;;;;;;;5.93;5.32;;;;;;;;;;4977828;28;20033;-73
2021/07/12 06:43:24;;;;;;;8.90;5.97;;;;;;;;;;4977773;28;20492;-73
2021/07/12 06:45:50;;;;;;;9.10;5.25;;;;;;;;;;4978334;28;20030;-74
2021/07/12 06:48:16;;;;;;;15.57;6.13;;;;;;;;;;4975415;28;20085;-76
2021/07/12 06:50:42;;;;;;;9.90;4.95;;;;;;;;;;4978278;28;20042;-73
2021/07/12 06:53:08;;;;;;;9.02;4.72;;;;;;;;;;4978333;28;20031;-73
2021/07/12 06:55:34;;;;;;;4.88;4.38;;;;;;;;;;4977483;28;20397;-74
2021/07/12 06:58:04;;;;;;;5.43;4.70;;;;;;;;;;4978302;28;20038;-73
2021/07/12 07:00:32;;;;;;;12.93;5.28;;;;;;;;;;4976205;28;20030;-73
2021/07/12 07:02:58;;;;;;;11.00;4.75;;;;;;;;;;4976890;28;20022;-72
2021/07/12 07:05:26;;;;;;;5.05;3.92;;;;;;;;;;4977723;28;20496;-71
2021/07/12 07:07:52;;;;;;;6.03;4.75;;;;;;;;;;4977364;28;20034;-73
2021/07/12 07:10:19;;;;;;;5.28;4.38;;;;;;;;;;4976593;28;20030;-74
2021/07/12 07:12:45;;;;;;;15.98;5.07;;;;;;;;;;4976265;28;20049;-74
2021/07/12 07:15:12;;;;;;;4.95;4.45;;;;;;;;;;4975614;28;20069;-73
2021/07/12 07:17:38;;;;;;;9.35;4.13;;;;;;;;;;4976045;28;20031;-75
2021/07/12 07:20:05;;;;;;;6.70;4.90;;;;;;;;;;4976646;28;20026;-72
2021/07/12 07:22:32;;;;;;;9.63;4.50;;;;;;;;;;4976156;28;20117;-71
2021/07/12 07:24:58;;;;;;;11.38;5.00;;;;;;;;;;4974617;28;20023;-73
2021/07/12 07:27:24;;;;;;;9.00;4.63;;;;;;;;;;4975861;28;20113;-71
2021/07/12 07:29:50;;;;;;;4.93;4.20;;;;;;;;;;4975407;28;20058;-71
2021/07/12 07:32:17;;;;;;;11.55;4.75;;;;;;;;;;4976622;28;20026;-73
2021/07/12 07:34:44;;;;;;;6.93;5.10;;;;;;;;;;4975227;28;20547;-72
2021/07/12 07:37:10;;;;;;;8.40;5.00;;;;;;;;;;4975099;28;20042;-71
2021/07/12 07:39:37;;;;;;;5.72;4.63;;;;;;;;;;4976139;28;20097;-71
2021/07/12 07:42:03;;;;;;;9.70;4.75;;;;;;;;;;4975740;28;20030;-72
2021/07/12 07:44:29;;;;;;;4.68;4.05;;;;;;;;;;4973782;28;20018;-71
2021/07/12 07:46:55;;;;;;;5.50;4.78;;;;;;;;;;4975882;28;20489;-69
2021/07/12 07:49:22;;;;;;;4.85;4.35;;;;;;;;;;4974827;28;20034;-70
2021/07/12 07:51:49;;;;;;;10.65;4.72;;;;;;;;;;4976620;28;20413;-72
2021/07/12 07:54:16;;;;;;;4.75;3.80;;;;;;;;;;4977106;28;20062;-73
2021/07/12 07:56:42;;;;;;;4.80;4.05;;;;;;;;;;4975668;28;20489;-72
2021/07/12 07:59:08;;;;;;;6.28;4.57;;;;;;;;;;4974191;28;20023;-73
2021/07/12 08:01:34;;;;;;;5.80;4.65;;;;;;;;;;4974819;28;20014;-74
2021/07/12 08:04:00;;;;;;;7.32;4.82;;;;;;;;;;4974809;28;20389;-73
2021/07/12 08:06:26;;;;;;;5.20;4.70;;;;;;;;;;4974324;28;20086;-74
2021/07/12 08:08:52;;;;;;;9.13;5.80;;;;;;;;;;4974568;28;20023;-73
2021/07/12 08:11:19;;;;;;;6.90;5.28;;;;;;;;;;4974115;28;20034;-75
2021/07/12 08:13:45;;;;;;;7.35;5.72;;;;;;;;;;4973629;28;20469;-74
2021/07/12 08:16:11;;;;;;;12.02;5.30;;;;;;;;;;4973551;28;20404;-75
2021/07/12 08:18:37;;;;;;;9.35;7.72;;;;;;;;;;4974659;28;20029;-75
2021/07/12 08:21:03;;;;;;;4.68;4.20;;;;;;;;;;4974008;28;20361;-74
2021/07/12 08:23:30;;;;;;;6.05;5.28;;;;;;;;;;4971546;28;20058;-77
2021/07/12 08:25:56;;;;;;;11.00;6.28;;;;;;;;;;4974562;28;20033;-77
2021/07/12 08:28:25;;;;;;;6.70;5.95;;;;;;;;;;4974089;28;20519;-77
2021/07/12 08:30:51;;;;;;;6.00;5.40;;;;;;;;;;4973982;28;20098;-77
2021/07/12 08:33:17;;;;;;;6.90;5.82;;;;;;;;;;4973571;28;20031;-77
2021/07/12 08:35:43;;;;;;;8.48;5.82;;;;;;;;;;4973759;28;20033;-76
2021/07/12 08:38:09;;;;;;;7.40;6.70;;;;;;;;;;4973926;28;20030;-76
2021/07/12 08:40:35;;;;;;;6.65;5.15;;;;;;;;;;4974327;28;20042;-77
2021/07/12 08:43:01;;;;;;;7.03;6.38;;;;;;;;;;4974134;28;20469;-76
2021/07/12 08:45:28;;;;;;;6.78;6.07;;;;;;;;;;4973209;28;20384;-75
2021/07/12 08:47:54;;;;;;;7.80;6.30;;;;;;;;;;4973211;28;20061;-76
2021/07/12 08:50:21;;;;;;;14.02;6.03;;;;;;;;;;4970919;28;20034;-77
2021/07/12 08:52:47;;;;;;;9.85;5.90;;;;;;;;;;4973963;28;20488;-78
2021/07/12 08:55:13;;;;;;;8.02;6.45;;;;;;;;;;4975468;28;20058;-82
2021/07/12 08:57:39;;;;;;;10.10;6.45;;;;;;;;;;4974788;28;20765;-76
2021/07/12 09:00:07;;;;;;;6.03;5.47;;;;;;;;;;4976742;28;20034;-78
2021/07/12 09:02:34;;;;;;;6.72;5.93;;;;;;;;;;4976461;28;20406;-86
2021/07/12 09:05:00;;;;;;;6.78;5.60;;;;;;;;;;4977408;28;20397;-87
2021/07/12 09:07:28;;;;;;;5.85;5.35;;;;;;;;;;4976543;28;20023;-83
2021/07/12 09:10:11;;;;;;;6.05;5.45;;;;;;;;;;4977766;28;20109;-79
2021/07/12 09:12:38;;;;;;;9.23;5.90;;;;;;;;;;4971163;28;20022;-86
2021/07/12 09:15:06;;;;;;;7.45;6.75;;;;;;;;;;4976752;28;20045;-83
2021/07/12 09:17:33;;;;;;;8.80;6.22;;;;;;;;;;4973127;28;20459;-80
2021/07/12 09:19:59;;;;;;;8.15;6.07;;;;;;;;;;4974999;28;20129;-81
2021/07/12 09:22:30;;;;;;;11.95;5.15;;;;;;;;;;4972679;28;20477;-82
2021/07/12 09:24:56;;;;;;;12.57;6.50;;;;;;;;;;4975070;28;20473;-81
2021/07/12 09:27:24;;;;;;;8.50;5.32;;;;;;;;;;4974747;28;20532;-82
2021/07/12 09:29:51;;;;;;;14.38;5.38;;;;;;;;;;4974789;28;20057;-83
2021/07/12 09:32:18;;;;;;;8.30;5.65;;;;;;;;;;4974798;28;20077;-82
2021/07/12 09:34:46;;;;;;;9.23;5.90;;;;;;;;;;4971211;28;20034;-85
2021/07/12 09:37:12;;;;;;;13.43;5.75;;;;;;;;;;4975138;28;20046;-82
2021/07/12 09:39:39;;;;;;;6.50;5.90;;;;;;;;;;4974510;28;20027;-79
2021/07/12 09:42:07;;;;;;;7.70;5.82;;;;;;;;;;4974338;28;20019;-82
2021/07/12 09:44:33;;;;;;;6.72;5.95;;;;;;;;;;4974944;28;20393;-82
2021/07/12 09:47:03;;;;;;;6.35;5.75;;;;;;;;;;4978433;28;20026;-86
2021/07/12 09:49:29;;;;;;;6.05;5.45;;;;;;;;;;4977154;28;20535;-82
2021/07/12 09:51:57;;;;;;;6.20;5.60;;;;;;;;;;4978317;28;20023;-83
2021/07/12 09:54:33;;;;;;;10.27;5.55;;;;;;;;;;4978472;28;20050;-85
2021/07/12 09:57:10;;;;;;;6.30;5.43;;;;;;;;;;4978094;28;20035;-81
2021/07/12 09:59:36;;;;;;;9.00;5.65;;;;;;;;;;4977404;28;20077;-84
2021/07/12 10:02:03;;;;;;;6.47;5.43;;;;;;;;;;4978867;28;20035;-81
2021/07/12 10:04:29;;;;;;;5.97;5.45;;;;;;;;;;4978175;28;20019;-82
2021/07/12 10:06:55;;;;;;;6.53;5.60;;;;;;;;;;4978073;28;20038;-83
2021/07/12 10:09:22;;;;;;;9.63;5.43;;;;;;;;;;4975889;28;20077;-76
2021/07/12 10:11:49;;;;;;;9.27;5.40;;;;;;;;;;4977597;28;20041;-81
2021/07/12 10:14:15;;;;;;;8.98;6.00;;;;;;;;;;4977413;28;20035;-78
2021/07/12 10:16:41;;;;;;;5.95;5.45;;;;;;;;;;4972723;28;20045;-78
2021/07/12 10:19:07;;;;;;;9.85;5.82;;;;;;;;;;4975711;28;20596;-78
2021/07/12 10:21:34;;;;;;;5.53;5.03;;;;;;;;;;4974218;28;20058;-75
2021/07/12 10:24:00;;;;;;;14.27;6.05;;;;;;;;;;4975139;28;20030;-75
2021/07/12 10:26:46;;;;;;;8.90;5.30;;;;;;;;;;4967061;28;20026;-75
2021/07/12 10:29:13;;;;;;;5.80;5.28;;;;;;;;;;4999300;28;20026;-74
2021/07/12 10:31:59;;;;;;;5.47;4.97;;;;;;;;;;4974797;28;20086;-75
2021/07/12 10:34:28;;;;;;;6.22;5.63;;;;;;;;;;4973509;28;20065;-75
2021/07/12 10:36:58;;;;;;;6.28;5.78;;;;;;;;;;4973007;28;20065;-74
2021/07/12 10:39:44;;;;;;;4.90;4.47;;;;;;;;;;4972870;28;20041;-74
2021/07/12 10:42:10;;;;;;;5.82;5.30;;;;;;;;;;4972779;28;20026;-73
2021/07/12 10:44:56;;;;;;;5.88;4.75;;;;;;;;;;4974433;28;20023;-75
2021/07/12 10:47:43;;;;;;;10.13;4.68;;;;;;;;;;4972944;28;20053;-74
2021/07/12 10:50:29;;;;;;;5.35;4.88;;;;;;;;;;4973611;28;20031;-74
2021/07/12 10:52:55;;;;;;;8.65;4.68;;;;;;;;;;4971456;28;20029;-74
2021/07/12 10:55:36;;;;;;;5.07;4.60;;;;;;;;;;4973129;28;20058;-74
2021/07/12 10:58:22;;;;;;;6.85;5.00;;;;;;;;;;4975245;28;20054;-74
2021/07/12 11:00:49;;;;;;;16.10;5.82;;;;;;;;;;4976177;28;20030;-75
2021/07/12 11:03:35;;;;;;;10.57;5.22;;;;;;;;;;4975277;28;20050;-74
2021/07/12 11:06:01;;;;;;;8.45;4.95;;;;;;;;;;4972660;28;20120;-74
2021/07/12 11:08:46;;;;;;;11.13;5.10;;;;;;;;;;4976422;28;20042;-74
2021/07/12 11:11:13;;;;;;;5.38;4.88;;;;;;;;;;4972799;28;20023;-72
2021/07/12 11:13:57;;;;;;;7.70;4.63;;;;;;;;;;4975357;28;20609;-73
2021/07/12 11:16:25;;;;;;;6.55;5.38;;;;;;;;;;4976320;28;20066;-73
2021/07/12 11:18:53;;;;;;;9.63;5.25;;;;;;;;;;4974978;28;20105;-73
2021/07/12 11:21:35;;;;;;;11.95;4.82;;;;;;;;;;4974839;28;20137;-74
2021/07/12 11:24:20;;;;;;;8.07;4.25;;;;;;;;;;4976255;28;20122;-73
2021/07/12 11:26:47;;;;;;;5.70;4.75;;;;;;;;;;4974098;28;20015;-74
2021/07/12 11:29:22;;;;;;;6.28;4.13;;;;;;;;;;4976493;28;20062;-74
2021/07/12 11:31:54;;;;;;;4.10;3.70;;;;;;;;;;4972931;28;20071;-74
2021/07/12 11:34:24;;;;;;;8.55;4.30;;;;;;;;;;4975656;28;20089;-73
2021/07/12 11:36:53;;;;;;;4.35;4.00;;;;;;;;;;4975364;28;20105;-73
2021/07/12 11:39:20;;;;;;;4.38;3.97;;;;;;;;;;4979946;28;20053;-73
2021/07/12 11:41:46;;;;;;;9.05;4.38;;;;;;;;;;4975134;28;20018;-74
2021/07/12 11:44:14;;;;;;;4.45;4.00;;;;;;;;;;4975142;28;20420;-74
2021/07/12 11:46:40;;;;;;;9.85;4.32;;;;;;;;;;4975051;28;20065;-74
2021/07/12 11:49:09;;;;;;;5.18;4.20;;;;;;;;;;4975751;28;20365;-73
2021/07/12 11:51:36;;;;;;;7.63;3.88;;;;;;;;;;4973770;28;20023;-74
2021/07/12 11:54:02;;;;;;;5.70;3.90;;;;;;;;;;4971703;28;20031;-75
2021/07/12 11:56:28;;;;;;;5.57;4.82;;;;;;;;;;4975285;28;20042;-75
2021/07/12 11:58:58;;;;;;;4.80;4.35;;;;;;;;;;4976327;28;20027;-73
2021/07/12 12:01:26;;;;;;;5.32;4.68;;;;;;;;;;4972825;28;20503;-74
2021/07/12 12:04:01;;;;;;;5.65;3.80;;;;;;;;;;4975222;28;20165;-73
2021/07/12 12:06:27;;;;;;;4.38;3.75;;;;;;;;;;4973729;28;20035;-74
2021/07/12 12:09:01;;;;;;;4.18;3.78;;;;;;;;;;4974195;28;20508;-71
2021/07/12 12:11:28;;;;;;;5.13;4.57;;;;;;;;;;4971701;28;20022;-72
2021/07/12 12:13:55;;;;;;;4.22;3.83;;;;;;;;;;4973828;28;20089;-72
2021/07/12 12:16:28;;;;;;;4.30;3.83;;;;;;;;;;4974132;28;20027;-71
2021/07/12 12:18:55;;;;;;;6.75;4.22;;;;;;;;;;4973675;28;20469;-71
2021/07/12 12:21:23;;;;;;;8.18;3.97;;;;;;;;;;4972993;28;20023;-71
2021/07/12 12:23:49;;;;;;;4.10;3.70;;;;;;;;;;4973836;28;20150;-71
2021/07/12 12:26:17;;;;;;;8.02;4.80;;;;;;;;;;4973395;28;20023;-71
2021/07/12 12:28:45;;;;;;;3.70;3.40;;;;;;;;;;4973596;28;20046;-71
2021/07/12 12:31:13;;;;;;;5.47;3.35;;;;;;;;;;4971203;28;20070;-71
2021/07/12 12:33:40;;;;;;;4.32;3.92;;;;;;;;;;4973711;28;20436;-71
2021/07/12 12:36:07;;;;;;;3.75;3.30;;;;;;;;;;4974703;28;20034;-70
2021/07/12 12:38:33;;;;;;;3.75;3.42;;;;;;;;;;4974190;28;20034;-70
2021/07/12 12:41:01;;;;;;;4.40;4.00;;;;;;;;;;4972897;28;20477;-69
2021/07/12 12:43:28;;;;;;;4.95;3.83;;;;;;;;;;4974593;28;20095;-69
2021/07/12 12:45:54;;;;;;;5.30;3.75;;;;;;;;;;4973830;28;20436;-70
2021/07/12 12:48:37;;;;;;;6.10;4.03;;;;;;;;;;4972367;28;20023;-70
2021/07/12 12:51:19;;;;;;;4.43;4.03;;;;;;;;;;4970490;28;20569;-70
2021/07/12 12:53:45;;;;;;;5.43;3.80;;;;;;;;;;4969722;28;20369;-70
2021/07/12 12:56:11;;;;;;;7.38;3.72;;;;;;;;;;4972668;28;20089;-68
2021/07/12 12:58:37;;;;;;;4.43;3.92;;;;;;;;;;4973112;28;20054;-70
2021/07/12 13:01:10;;;;;;;3.90;3.60;;;;;;;;;;4973114;28;20034;-69
2021/07/12 13:03:36;;;;;;;4.55;3.97;;;;;;;;;;4973337;28;20074;-71
2021/07/12 13:06:03;;;;;;;5.18;3.78;;;;;;;;;;4972946;28;20030;-70
2021/07/12 13:08:29;;;;;;;6.18;4.25;;;;;;;;;;4973601;28;20023;-70
2021/07/12 13:10:58;;;;;;;3.90;3.53;;;;;;;;;;4971665;28;20491;-71
2021/07/12 13:13:27;;;;;;;8.40;3.80;;;;;;;;;;4971268;28;20027;-69
2021/07/12 13:15:53;;;;;;;4.45;4.05;;;;;;;;;;4972088;28;20435;-71
2021/07/12 13:18:19;;;;;;;4.32;3.47;;;;;;;;;;4972129;28;20038;-71
2021/07/12 13:20:46;;;;;;;6.10;3.78;;;;;;;;;;4972411;28;20031;-70
2021/07/12 13:23:13;;;;;;;8.48;4.97;;;;;;;;;;4973627;28;20035;-71
2021/07/12 13:25:40;;;;;;;4.88;4.07;;;;;;;;;;4973850;28;20500;-70
2021/07/12 13:28:07;;;;;;;4.43;3.72;;;;;;;;;;4973451;28;20035;-70
2021/07/12 13:30:39;;;;;;;5.88;3.85;;;;;;;;;;4974402;28;20078;-70
2021/07/12 13:33:05;;;;;;;4.50;4.10;;;;;;;;;;4972532;28;20111;-70
2021/07/12 13:35:31;;;;;;;5.70;4.03;;;;;;;;;;4973546;28;20473;-70
2021/07/12 13:38:00;;;;;;;12.35;4.57;;;;;;;;;;4971737;28;20492;-70
2021/07/12 13:40:26;;;;;;;6.80;4.25;;;;;;;;;;4972246;28;20073;-70
2021/07/12 13:42:52;;;;;;;5.32;3.70;;;;;;;;;;4970720;28;20023;-72
2021/07/12 13:45:18;;;;;;;5.03;4.55;;;;;;;;;;4972456;28;20023;-71
2021/07/12 13:47:45;;;;;;;7.90;4.47;;;;;;;;;;4972989;28;20026;-70
2021/07/12 13:50:13;;;;;;;4.13;3.50;;;;;;;;;;4972941;28;20455;-72
2021/07/12 13:52:40;;;;;;;8.00;3.63;;;;;;;;;;4973280;28;20019;-72
2021/07/12 13:55:06;;;;;;;4.88;4.47;;;;;;;;;;4973777;28;20102;-73
2021/07/12 13:57:32;;;;;;;5.90;4.40;;;;;;;;;;4974852;28;20031;-74
2021/07/12 13:59:58;;;;;;;5.65;4.65;;;;;;;;;;4973538;28;20477;-74
2021/07/12 14:02:24;;;;;;;7.13;5.03;;;;;;;;;;4973031;28;20019;-72
2021/07/12 14:04:50;;;;;;;7.05;4.85;;;;;;;;;;4973278;28;20076;-71
2021/07/12 14:07:16;;;;;;;6.20;4.03;;;;;;;;;;4972576;28;20035;-71
2021/07/12 14:09:43;;;;;;;5.63;4.63;;;;;;;;;;4972866;28;20026;-72
2021/07/12 14:12:09;;;;;;;4.90;4.50;;;;;;;;;;4972417;28;20030;-70
2021/07/12 14:14:35;;;;;;;5.15;4.53;;;;;;;;;;4972727;28;20058;-71
2021/07/12 14:17:01;;;;;;;5.47;3.70;;;;;;;;;;4970933;28;20038;-72
2021/07/12 14:19:27;;;;;;;15.82;4.53;;;;;;;;;;4972482;28;20030;-74
2021/07/12 14:21:53;;;;;;;4.55;4.15;;;;;;;;;;4973572;28;20492;-74
2021/07/12 14:24:19;;;;;;;8.35;4.57;;;;;;;;;;4972928;28;20030;-72
2021/07/12 14:26:45;;;;;;;6.68;4.00;;;;;;;;;;4973480;28;20509;-72
2021/07/12 14:29:12;;;;;;;4.28;3.95;;;;;;;;;;4973325;28;20457;-72
2021/07/12 14:31:39;;;;;;;4.88;4.07;;;;;;;;;;4974296;28;20023;-73
2021/07/12 14:34:05;;;;;;;5.47;4.50;;;;;;;;;;4976432;28;20022;-71
2021/07/12 14:36:31;;;;;;;4.85;4.05;;;;;;;;;;4975356;28;20073;-71
2021/07/12 14:38:57;;;;;;;23.40;5.63;;;;;;;;;;4975110;28;20039;-72
2021/07/12 14:41:23;;;;;;;6.75;4.50;;;;;;;;;;4975111;28;20438;-72
2021/07/12 14:43:49;;;;;;;8.30;4.18;;;;;;;;;;4975476;28;20054;-70
2021/07/12 14:46:15;;;;;;;10.45;5.15;;;;;;;;;;4975573;28;20047;-69